createdAt,value
2017-09-14T00:00:07.097Z,19.30
2017-09-14T00:02:34.668Z,19.30
2017-09-14T00:05:02.208Z,19.20
2017-09-14T00:07:30.098Z,19.30
2017-09-14T00:09:57.641Z,19.20
2017-09-14T00:12:25.197Z,19.20
2017-09-14T00:14:52.736Z,19.20
2017-09-14T00:17:21.041Z,19.30
2017-09-14T00:19:48.600Z,19.30
2017-09-14T00:22:16.120Z,19.20
2017-09-14T00:24:43.677Z,19.20
2017-09-14T00:27:11.206Z,19.20
2017-09-14T00:29:38.764Z,19.20
2017-09-14T00:32:06.319Z,19.20
2017-09-14T00:34:33.879Z,19.10
2017-09-14T00:37:02.192Z,19.30
2017-09-14T00:39:30.530Z,19.30
2017-09-14T00:41:58.851Z,19.40
2017-09-14T00:44:26.493Z,19.30
2017-09-14T00:46:54.801Z,19.40
2017-09-14T00:49:22.351Z,19.30
2017-09-14T00:51:49.876Z,19.40
2017-09-14T00:54:18.210Z,19.30
2017-09-14T00:56:45.745Z,19.30
2017-09-14T00:59:13.303Z,19.30
2017-09-14T01:01:40.858Z,19.30
2017-09-14T01:04:08.396Z,19.20
2017-09-14T01:06:36.712Z,19.20
2017-09-14T01:09:04.255Z,19.20
2017-09-14T01:11:31.811Z,19.10
2017-09-14T01:13:59.396Z,19.10
2017-09-14T01:16:26.970Z,19.10
2017-09-14T01:18:54.524Z,19.10
2017-09-14T01:21:22.086Z,19.10
2017-09-14T01:23:49.650Z,19.10
2017-09-14T01:26:17.206Z,19.10
2017-09-14T01:28:44.770Z,19.10
2017-09-14T01:31:12.317Z,19.20
2017-09-14T01:33:39.858Z,19.10
2017-09-14T01:36:07.399Z,19.20
2017-09-14T01:38:35.718Z,19.10
2017-09-14T01:41:03.240Z,19.10
2017-09-14T01:43:30.822Z,19.10
2017-09-14T01:45:58.357Z,19.20
2017-09-14T01:48:26.664Z,19.10
2017-09-14T01:50:54.204Z,19.10
2017-09-14T01:53:21.767Z,19.10
2017-09-14T01:55:49.440Z,19.10
2017-09-14T01:58:16.991Z,19.20
2017-09-14T02:00:44.774Z,19.10
2017-09-14T02:03:12.357Z,19.20
2017-09-14T02:05:39.893Z,19.10
2017-09-14T02:08:07.456Z,19.10
2017-09-14T02:10:34.989Z,19.10
2017-09-14T02:13:02.565Z,19.20
2017-09-14T02:15:30.109Z,19.10
2017-09-14T02:17:57.657Z,19.10
2017-09-14T02:20:26.014Z,19.10
2017-09-14T02:22:53.550Z,19.00
2017-09-14T02:25:21.101Z,19.10
2017-09-14T02:27:48.638Z,19.00
2017-09-14T02:30:16.200Z,19.00
2017-09-14T02:32:43.725Z,18.60
2017-09-14T02:35:12.044Z,17.60
2017-09-14T02:37:39.577Z,17.50
2017-09-14T02:40:07.894Z,17.10
2017-09-14T02:42:35.443Z,17.00
2017-09-14T02:45:03.000Z,17.00
2017-09-14T02:47:30.532Z,16.90
2017-09-14T02:49:58.118Z,16.70
2017-09-14T02:52:25.650Z,16.50
2017-09-14T02:54:53.988Z,16.20
2017-09-14T02:57:21.549Z,16.10
2017-09-14T02:59:49.108Z,16.00
2017-09-14T03:02:16.692Z,15.80
2017-09-14T03:04:45.013Z,15.40
2017-09-14T03:07:12.568Z,15.30
2017-09-14T03:09:41.918Z,15.20
2017-09-14T03:12:10.255Z,14.80
2017-09-14T03:14:37.816Z,14.80
2017-09-14T03:17:05.365Z,14.90
2017-09-14T03:19:32.942Z,14.80
2017-09-14T03:22:00.481Z,14.70
2017-09-14T03:24:28.031Z,14.70
2017-09-14T03:26:55.580Z,14.60
2017-09-14T03:29:23.151Z,14.50
2017-09-14T03:31:50.692Z,14.40
2017-09-14T03:34:19.028Z,14.30
2017-09-14T03:36:46.578Z,14.20
2017-09-14T03:39:14.123Z,14.20
2017-09-14T03:41:41.692Z,13.90
2017-09-14T03:44:09.233Z,13.80
2017-09-14T03:46:36.793Z,13.80
2017-09-14T03:49:04.354Z,13.60
2017-09-14T03:51:31.917Z,13.60
2017-09-14T03:53:59.464Z,13.60
2017-09-14T03:56:27.033Z,13.50
2017-09-14T03:58:54.566Z,13.30
2017-09-14T04:01:22.866Z,13.30
2017-09-14T04:03:50.433Z,13.20
2017-09-14T04:06:17.969Z,13.20
2017-09-14T04:08:46.309Z,12.90
2017-09-14T04:11:13.843Z,12.90
2017-09-14T04:13:42.177Z,12.80
2017-09-14T04:16:09.717Z,12.80
2017-09-14T04:18:37.269Z,12.70
2017-09-14T04:21:04.818Z,12.70
2017-09-14T04:23:32.353Z,12.70
2017-09-14T04:25:59.913Z,12.60
2017-09-14T04:28:27.449Z,12.50
2017-09-14T04:30:55.008Z,12.40
2017-09-14T04:33:22.536Z,12.20
2017-09-14T04:35:50.091Z,12.30
2017-09-14T04:38:17.618Z,12.20
2017-09-14T04:40:45.177Z,12.10
2017-09-14T04:43:12.713Z,11.90
2017-09-14T04:45:40.283Z,11.80
2017-09-14T04:48:07.852Z,11.90
2017-09-14T04:50:35.378Z,11.80
2017-09-14T04:53:03.710Z,11.70
2017-09-14T04:55:31.266Z,11.70
2017-09-14T04:57:58.817Z,11.70
2017-09-14T05:00:26.340Z,11.60
2017-09-14T05:02:53.889Z,11.60
2017-09-14T05:05:22.178Z,11.50
2017-09-14T05:07:49.725Z,11.50
2017-09-14T05:10:18.013Z,11.60
2017-09-14T05:12:45.549Z,11.60
2017-09-14T05:15:13.092Z,11.60
2017-09-14T05:17:40.629Z,11.50
2017-09-14T05:20:08.937Z,11.50
2017-09-14T05:22:36.489Z,11.50
2017-09-14T05:25:04.020Z,11.40
2017-09-14T05:27:32.325Z,11.50
2017-09-14T05:29:59.856Z,11.40
2017-09-14T05:32:28.171Z,11.30
2017-09-14T05:34:55.714Z,11.20
2017-09-14T05:37:23.266Z,11.20
2017-09-14T05:39:50.794Z,11.10
2017-09-14T05:42:18.320Z,11.10
2017-09-14T05:44:45.883Z,11.10
2017-09-14T05:47:13.442Z,11.00
2017-09-14T05:49:40.989Z,11.10
2017-09-14T05:52:09.301Z,11.10
2017-09-14T05:54:36.897Z,11.10
2017-09-14T05:57:04.442Z,11.10
2017-09-14T05:59:31.993Z,11.10
2017-09-14T06:01:59.530Z,11.10
2017-09-14T06:04:27.896Z,11.00
2017-09-14T06:06:56.204Z,11.10
2017-09-14T06:09:23.753Z,11.00
2017-09-14T06:11:51.284Z,11.10
2017-09-14T06:14:18.810Z,11.00
2017-09-14T06:16:47.135Z,10.90
2017-09-14T06:19:14.884Z,10.90
2017-09-14T06:21:42.427Z,11.10
2017-09-14T06:24:10.885Z,10.80
2017-09-14T06:26:38.441Z,10.80
2017-09-14T06:29:05.965Z,10.80
2017-09-14T06:31:33.491Z,10.80
2017-09-14T06:34:01.811Z,10.90
2017-09-14T06:36:29.344Z,10.80
2017-09-14T06:38:56.897Z,10.80
2017-09-14T06:41:24.429Z,10.80
2017-09-14T06:43:52.001Z,10.90
2017-09-14T06:46:20.294Z,10.70
2017-09-14T06:48:47.822Z,10.70
2017-09-14T06:51:15.379Z,10.70
2017-09-14T06:53:42.938Z,10.80
2017-09-14T06:56:10.491Z,10.80
2017-09-14T06:58:38.029Z,10.80
2017-09-14T07:01:05.549Z,10.80
2017-09-14T07:03:33.084Z,10.80
2017-09-14T07:06:01.512Z,10.90
2017-09-14T07:08:29.045Z,10.90
2017-09-14T07:10:56.599Z,10.90
2017-09-14T07:13:24.924Z,10.90
2017-09-14T07:15:52.477Z,10.90
2017-09-14T07:18:20.050Z,11.00
2017-09-14T07:20:48.637Z,10.90
2017-09-14T07:23:16.191Z,10.90
2017-09-14T07:25:43.858Z,10.90
2017-09-14T07:28:11.418Z,10.90
2017-09-14T07:30:38.951Z,10.90
2017-09-14T07:33:06.510Z,10.80
2017-09-14T07:35:34.053Z,10.80
2017-09-14T07:38:01.597Z,10.70
2017-09-14T07:40:29.913Z,10.70
2017-09-14T07:42:57.441Z,10.60
2017-09-14T07:45:25.006Z,10.60
2017-09-14T07:47:52.549Z,10.60
2017-09-14T07:50:20.862Z,10.60
2017-09-14T07:52:48.397Z,10.60
2017-09-14T07:55:15.964Z,10.60
2017-09-14T07:57:43.492Z,10.60
2017-09-14T08:00:11.069Z,10.60
2017-09-14T08:02:38.603Z,10.60
2017-09-14T08:05:06.225Z,10.50
2017-09-14T08:07:33.753Z,10.50
2017-09-14T08:10:02.084Z,10.40
2017-09-14T08:12:29.625Z,10.40
2017-09-14T08:14:57.157Z,10.30
2017-09-14T08:17:25.093Z,10.30
2017-09-14T08:19:52.616Z,10.30
2017-09-14T08:22:20.161Z,10.30
2017-09-14T08:24:47.706Z,10.30
2017-09-14T08:27:15.247Z,10.30
2017-09-14T08:29:43.552Z,10.30
2017-09-14T08:32:11.101Z,10.30
2017-09-14T08:34:38.636Z,10.30
2017-09-14T08:37:06.982Z,10.50
2017-09-14T08:39:34.718Z,10.50
2017-09-14T08:42:02.248Z,10.50
2017-09-14T08:44:30.566Z,10.50
2017-09-14T08:46:58.102Z,10.40
2017-09-14T08:49:25.665Z,10.40
2017-09-14T08:51:53.197Z,10.30
2017-09-14T08:54:21.517Z,10.20
2017-09-14T08:56:49.037Z,10.20
2017-09-14T08:59:17.373Z,10.20
2017-09-14T09:01:44.936Z,10.10
2017-09-14T09:04:12.500Z,10.10
2017-09-14T09:06:40.038Z,10.10
2017-09-14T09:09:07.568Z,10.20
2017-09-14T09:11:35.899Z,10.30
2017-09-14T09:14:03.466Z,10.20
2017-09-14T09:16:31.009Z,10.30
2017-09-14T09:18:58.566Z,10.40
2017-09-14T09:21:26.094Z,10.40
2017-09-14T09:23:53.653Z,10.40
2017-09-14T09:26:21.210Z,10.40
2017-09-14T09:28:48.772Z,10.40
2017-09-14T09:31:16.321Z,10.30
2017-09-14T09:33:44.631Z,10.40
2017-09-14T09:36:12.179Z,10.30
2017-09-14T09:38:39.739Z,10.30
2017-09-14T09:41:07.275Z,10.30
2017-09-14T09:43:35.602Z,10.20
2017-09-14T09:46:03.132Z,10.20
2017-09-14T09:48:30.685Z,10.10
2017-09-14T09:50:58.213Z,10.20
2017-09-14T09:53:26.531Z,10.10
2017-09-14T09:55:54.069Z,10.10
2017-09-14T09:58:22.380Z,10.20
2017-09-14T10:00:49.920Z,10.20
2017-09-14T10:03:17.491Z,10.20
2017-09-14T10:05:45.039Z,10.20
2017-09-14T10:08:12.572Z,10.10
2017-09-14T10:10:40.893Z,10.10
2017-09-14T10:13:08.438Z,10.00
2017-09-14T10:15:35.965Z,10.00
2017-09-14T10:18:04.273Z,9.90
2017-09-14T10:20:31.814Z,9.90
2017-09-14T10:23:00.129Z,10.00
2017-09-14T10:25:27.666Z,10.00
2017-09-14T10:27:55.225Z,10.00
2017-09-14T10:30:22.758Z,10.00
2017-09-14T10:32:51.081Z,10.00
2017-09-14T10:35:18.757Z,10.00
2017-09-14T10:37:48.884Z,10.00
2017-09-14T10:40:16.995Z,10.00
2017-09-14T10:42:45.894Z,10.00
2017-09-14T10:45:14.474Z,10.00
2017-09-14T10:47:43.135Z,10.00
2017-09-14T10:50:12.484Z,10.00
2017-09-14T10:52:40.038Z,10.00
2017-09-14T10:55:07.606Z,10.00
2017-09-14T10:57:35.127Z,10.00
2017-09-14T11:00:02.684Z,10.00
2017-09-14T11:02:30.343Z,9.90
2017-09-14T11:04:57.931Z,9.90
2017-09-14T11:07:25.484Z,10.00
2017-09-14T11:09:53.033Z,10.10
2017-09-14T11:12:20.564Z,10.10
2017-09-14T11:14:48.873Z,10.10
2017-09-14T11:17:16.416Z,10.10
2017-09-14T11:19:44.733Z,10.10
2017-09-14T11:22:12.262Z,10.00
2017-09-14T11:24:39.820Z,10.20
2017-09-14T11:27:07.344Z,10.20
2017-09-14T11:29:34.889Z,10.30
2017-09-14T11:32:02.417Z,10.20
2017-09-14T11:34:29.966Z,10.10
2017-09-14T11:36:57.694Z,10.10
2017-09-14T11:39:25.997Z,10.00
2017-09-14T11:41:53.545Z,10.00
2017-09-14T11:44:21.845Z,9.90
2017-09-14T11:46:49.402Z,9.90
2017-09-14T11:49:16.974Z,9.90
2017-09-14T11:51:44.506Z,9.70
2017-09-14T11:54:12.838Z,10.00
2017-09-14T11:56:40.410Z,10.00
2017-09-14T11:59:07.970Z,10.10
2017-09-14T12:01:35.504Z,10.20
2017-09-14T12:04:03.049Z,10.10
2017-09-14T12:06:30.581Z,9.90
2017-09-14T12:08:58.134Z,9.70
2017-09-14T12:11:26.457Z,9.70
2017-09-14T12:13:53.995Z,9.70
2017-09-14T12:16:21.548Z,9.80
2017-09-14T12:18:51.041Z,9.90
2017-09-14T12:21:18.687Z,9.80
2017-09-14T12:23:47.185Z,9.80
2017-09-14T12:26:15.704Z,9.70
2017-09-14T12:28:43.441Z,9.80
2017-09-14T12:31:11.025Z,10.00
2017-09-14T12:33:38.569Z,10.30
2017-09-14T12:36:06.101Z,10.40
2017-09-14T12:38:33.646Z,10.50
2017-09-14T12:41:01.173Z,10.60
2017-09-14T12:43:28.701Z,10.60
2017-09-14T12:45:56.260Z,10.40
2017-09-14T12:48:23.832Z,10.30
2017-09-14T12:50:51.369Z,10.60
2017-09-14T12:53:18.911Z,10.90
2017-09-14T12:55:46.463Z,11.30
2017-09-14T12:58:14.757Z,11.00
2017-09-14T13:00:42.313Z,11.00
2017-09-14T13:03:09.892Z,10.80
2017-09-14T13:05:37.434Z,11.00
2017-09-14T13:08:05.005Z,10.90
2017-09-14T13:10:32.536Z,11.20
2017-09-14T13:13:00.087Z,11.60
2017-09-14T13:15:28.390Z,11.90
2017-09-14T13:17:55.938Z,11.90
2017-09-14T13:20:23.495Z,11.80
2017-09-14T13:22:51.054Z,12.10
2017-09-14T13:25:18.597Z,12.20
2017-09-14T13:27:46.922Z,12.20
2017-09-14T13:30:14.477Z,12.10
2017-09-14T13:32:42.021Z,12.50
2017-09-14T13:35:09.586Z,12.50
2017-09-14T13:37:37.117Z,12.40
2017-09-14T13:40:05.426Z,12.50
2017-09-14T13:42:32.978Z,12.40
2017-09-14T13:45:00.526Z,12.50
2017-09-14T13:47:28.055Z,12.50
2017-09-14T13:49:56.333Z,12.70
2017-09-14T13:52:25.619Z,12.70
2017-09-14T13:54:53.387Z,12.80
2017-09-14T13:57:20.962Z,12.70
2017-09-14T13:59:48.503Z,12.60
2017-09-14T14:02:16.037Z,12.50
2017-09-14T14:04:43.601Z,12.40
2017-09-14T14:07:11.175Z,12.90
2017-09-14T14:09:38.737Z,13.10
2017-09-14T14:12:06.296Z,12.90
2017-09-14T14:14:34.079Z,12.60
2017-09-14T14:17:01.946Z,12.50
2017-09-14T14:19:32.709Z,12.20
2017-09-14T14:22:00.449Z,11.70
2017-09-14T14:24:27.985Z,11.60
2017-09-14T14:26:55.522Z,11.30
2017-09-14T14:29:23.082Z,11.30
2017-09-14T14:31:50.647Z,11.30
2017-09-14T14:34:18.204Z,11.80
2017-09-14T14:36:45.737Z,12.20
2017-09-14T14:39:14.778Z,11.80
2017-09-14T14:41:42.325Z,11.80
2017-09-14T14:44:09.868Z,11.90
2017-09-14T14:46:38.212Z,11.90
2017-09-14T14:49:05.772Z,11.90
2017-09-14T14:51:33.352Z,11.90
2017-09-14T14:54:00.889Z,12.00
2017-09-14T14:56:28.445Z,12.20
2017-09-14T14:58:55.995Z,12.50
2017-09-14T15:01:23.644Z,12.40
2017-09-14T15:03:51.189Z,12.50
2017-09-14T15:06:18.754Z,12.60
2017-09-14T15:08:46.298Z,12.50
2017-09-14T15:11:13.884Z,12.70
2017-09-14T15:13:41.423Z,12.80
2017-09-14T15:16:08.954Z,12.70
2017-09-14T15:18:37.312Z,12.60
2017-09-14T15:21:04.849Z,12.60
2017-09-14T15:23:32.437Z,12.40
2017-09-14T15:25:59.986Z,12.40
2017-09-14T15:28:27.552Z,12.40
2017-09-14T15:30:55.090Z,12.50
2017-09-14T15:33:22.658Z,12.60
2017-09-14T15:35:50.197Z,12.60
2017-09-14T15:38:17.746Z,12.50
2017-09-14T15:40:51.054Z,12.50
2017-09-14T15:43:24.144Z,12.60
2017-09-14T15:45:51.684Z,12.50
2017-09-14T15:48:25.001Z,12.50
2017-09-14T15:50:58.306Z,12.20
2017-09-14T15:53:25.857Z,11.80
2017-09-14T15:55:53.431Z,11.60
2017-09-14T15:58:20.967Z,11.40
2017-09-14T16:00:48.765Z,11.10
2017-09-14T16:03:16.658Z,11.00
2017-09-14T16:05:44.954Z,10.70
2017-09-14T16:08:13.270Z,10.50
2017-09-14T16:10:40.816Z,10.50
2017-09-14T16:13:08.361Z,10.40
2017-09-14T16:15:35.901Z,10.50
2017-09-14T16:18:04.220Z,10.70
2017-09-14T16:20:31.760Z,10.70
2017-09-14T16:22:59.317Z,10.80
2017-09-14T16:25:26.843Z,10.80
2017-09-14T16:27:54.397Z,10.90
2017-09-14T16:30:21.961Z,10.90
2017-09-14T16:32:51.019Z,10.90
2017-09-14T16:35:18.578Z,10.90
2017-09-14T16:37:46.112Z,10.80
2017-09-14T16:40:13.688Z,10.80
2017-09-14T16:42:41.216Z,10.80
2017-09-14T16:45:09.512Z,10.80
2017-09-14T16:47:37.078Z,10.70
2017-09-14T16:50:04.631Z,10.70
2017-09-14T16:52:32.165Z,10.60
2017-09-14T16:55:00.489Z,10.60
2017-09-14T16:57:28.057Z,10.50
2017-09-14T16:59:55.617Z,10.50
2017-09-14T17:02:23.141Z,10.50
2017-09-14T17:04:50.674Z,10.50
2017-09-14T17:07:18.282Z,10.40
2017-09-14T17:09:45.813Z,10.30
2017-09-14T17:12:13.403Z,10.20
2017-09-14T17:14:40.948Z,10.10
2017-09-14T17:17:08.493Z,10.00
2017-09-14T17:19:37.492Z,9.90
2017-09-14T17:22:06.439Z,9.90
2017-09-14T17:24:35.020Z,9.90
2017-09-14T17:27:03.563Z,9.80
2017-09-14T17:29:32.398Z,9.70
2017-09-14T17:32:01.059Z,9.70
2017-09-14T17:34:29.719Z,9.60
2017-09-14T17:36:57.237Z,9.50
2017-09-14T17:39:24.944Z,9.50
2017-09-14T17:41:52.482Z,9.40
2017-09-14T17:44:20.788Z,9.40
2017-09-14T17:46:48.330Z,9.30
2017-09-14T17:49:15.866Z,9.30
2017-09-14T17:51:44.205Z,9.30
2017-09-14T17:54:11.721Z,9.30
2017-09-14T17:56:40.014Z,9.30
2017-09-14T17:59:07.586Z,9.30
2017-09-14T18:01:35.114Z,9.30
2017-09-14T18:04:03.438Z,9.30
2017-09-14T18:06:30.964Z,9.30
2017-09-14T18:08:58.516Z,9.30
2017-09-14T18:11:26.862Z,9.40
2017-09-14T18:13:54.391Z,9.40
2017-09-14T18:16:21.941Z,9.40
2017-09-14T18:18:49.479Z,9.30
2017-09-14T18:21:17.011Z,9.30
2017-09-14T18:23:45.337Z,9.40
2017-09-14T18:26:12.867Z,9.40
2017-09-14T18:28:40.429Z,9.40
2017-09-14T18:31:07.956Z,9.40
2017-09-14T18:33:35.518Z,9.50
2017-09-14T18:36:03.060Z,9.50
2017-09-14T18:38:30.601Z,9.50
2017-09-14T18:40:58.164Z,9.40
2017-09-14T18:43:25.696Z,9.30
2017-09-14T18:45:53.238Z,9.40
2017-09-14T18:48:21.526Z,9.50
2017-09-14T18:50:49.069Z,9.50
2017-09-14T18:53:17.367Z,9.60
2017-09-14T18:55:44.922Z,9.60
2017-09-14T18:58:12.462Z,9.60
2017-09-14T19:00:40.785Z,9.70
2017-09-14T19:03:08.320Z,9.70
2017-09-14T19:05:35.884Z,9.80
2017-09-14T19:08:03.409Z,9.90
2017-09-14T19:10:30.959Z,9.80
2017-09-14T19:12:58.477Z,9.80
2017-09-14T19:15:26.031Z,9.80
2017-09-14T19:17:53.578Z,9.90
2017-09-14T19:20:21.104Z,9.90
2017-09-14T19:22:48.652Z,9.80
2017-09-14T19:25:16.180Z,9.80
2017-09-14T19:27:43.717Z,9.80
2017-09-14T19:30:11.274Z,9.70
2017-09-14T19:32:38.833Z,9.70
2017-09-14T19:35:06.373Z,9.70
2017-09-14T19:37:34.689Z,9.60
2017-09-14T19:40:02.241Z,9.50
2017-09-14T19:42:29.913Z,9.50
2017-09-14T19:44:57.467Z,9.50
2017-09-14T19:47:24.999Z,9.40
2017-09-14T19:49:53.325Z,9.20
2017-09-14T19:52:20.853Z,9.20
2017-09-14T19:54:48.864Z,9.20
2017-09-14T19:57:16.390Z,9.10
2017-09-14T19:59:43.929Z,9.00
2017-09-14T20:02:11.498Z,8.90
2017-09-14T20:04:39.029Z,8.80
2017-09-14T20:07:06.589Z,8.80
2017-09-14T20:09:34.110Z,8.80
2017-09-14T20:12:01.654Z,8.90
2017-09-14T20:14:29.194Z,9.00
2017-09-14T20:16:56.737Z,9.00
2017-09-14T20:19:26.919Z,9.10
2017-09-14T20:21:55.741Z,9.10
2017-09-14T20:24:28.230Z,9.20
2017-09-14T20:26:59.449Z,9.10
2017-09-14T20:29:26.979Z,9.20
2017-09-14T20:31:54.512Z,9.20
2017-09-14T20:34:22.048Z,9.20
2017-09-14T20:36:50.463Z,9.20
2017-09-14T20:39:17.998Z,9.20
2017-09-14T20:41:46.294Z,9.20
2017-09-14T20:44:13.843Z,9.20
2017-09-14T20:46:41.381Z,9.30
2017-09-14T20:49:09.703Z,9.30
2017-09-14T20:51:37.225Z,9.20
2017-09-14T20:54:05.541Z,9.30
2017-09-14T20:56:33.088Z,9.20
2017-09-14T20:59:00.635Z,9.20
2017-09-14T21:01:28.188Z,9.30
2017-09-14T21:03:55.740Z,9.20
2017-09-14T21:06:24.093Z,9.20
2017-09-14T21:08:51.633Z,9.20
2017-09-14T21:11:19.273Z,9.10
2017-09-14T21:13:46.832Z,9.20
2017-09-14T21:16:14.357Z,9.10
2017-09-14T21:18:42.674Z,9.10
2017-09-14T21:21:10.206Z,9.10
2017-09-14T21:23:37.754Z,9.00
2017-09-14T21:26:06.081Z,9.00
2017-09-14T21:28:33.622Z,9.00
2017-09-14T21:31:01.158Z,8.90
2017-09-14T21:33:29.467Z,8.90
2017-09-14T21:35:56.993Z,8.90
2017-09-14T21:38:25.284Z,8.80
2017-09-14T21:40:52.857Z,8.80
2017-09-14T21:43:20.378Z,8.80
2017-09-14T21:45:48.709Z,8.90
2017-09-14T21:48:16.240Z,8.80
2017-09-14T21:50:43.786Z,8.90
2017-09-14T21:53:11.309Z,8.90
2017-09-14T21:55:38.865Z,8.90
2017-09-14T21:58:06.417Z,8.90
2017-09-14T22:00:33.985Z,9.00
2017-09-14T22:03:01.516Z,8.90
2017-09-14T22:05:29.052Z,9.00
2017-09-14T22:07:56.604Z,9.00
2017-09-14T22:10:24.134Z,9.00
2017-09-14T22:12:51.665Z,9.00
2017-09-14T22:15:19.197Z,9.10
2017-09-14T22:17:46.748Z,9.10
2017-09-14T22:20:14.304Z,9.10
2017-09-14T22:22:42.616Z,9.10
2017-09-14T22:25:10.194Z,9.10
2017-09-14T22:27:38.522Z,9.10
2017-09-14T22:30:06.062Z,9.10
2017-09-14T22:32:33.590Z,9.10
2017-09-14T22:35:01.150Z,9.10
2017-09-14T22:37:28.738Z,9.20
2017-09-14T22:39:56.319Z,9.20
2017-09-14T22:42:23.844Z,9.20
2017-09-14T22:44:52.137Z,9.20
2017-09-14T22:47:19.698Z,9.20
2017-09-14T22:49:47.229Z,9.20
2017-09-14T22:52:14.778Z,9.10
2017-09-14T22:54:42.309Z,9.20
2017-09-14T22:57:09.851Z,9.20
2017-09-14T22:59:37.378Z,9.20
2017-09-14T23:02:05.687Z,9.20
2017-09-14T23:04:33.245Z,9.20
2017-09-14T23:07:00.763Z,9.20
2017-09-14T23:09:29.076Z,9.10
2017-09-14T23:11:56.602Z,9.00
2017-09-14T23:14:24.933Z,9.00
2017-09-14T23:16:52.464Z,9.00
2017-09-14T23:19:19.993Z,9.10
2017-09-14T23:21:48.318Z,9.00
2017-09-14T23:24:15.870Z,9.00
2017-09-14T23:26:43.404Z,9.10
2017-09-14T23:29:11.689Z,9.20
2017-09-14T23:31:39.239Z,9.20
2017-09-14T23:34:06.774Z,9.20
2017-09-14T23:36:35.106Z,9.20
2017-09-14T23:39:02.637Z,9.20
2017-09-14T23:41:30.197Z,9.30
2017-09-14T23:43:58.037Z,9.30
2017-09-14T23:46:25.572Z,9.40
2017-09-14T23:48:53.207Z,9.40
2017-09-14T23:51:20.729Z,9.30
2017-09-14T23:53:49.052Z,9.40
2017-09-14T23:56:16.582Z,9.40
2017-09-14T23:58:44.137Z,9.40
